Time;durP1;ratioP1;P1;durP2;ratioP2;P2;SDS_P1;SDS_P2;PMS_P1;PMS_P2;Temp;Humidity;BMP_temperature;BMP_pressure;BME280_temperature;BME280_humidity;BME280_pressure;Samples;Min_cycle;Max_cycle;Signal;HPM_P1;HPM_P2
2022/05/12 00:00:06;;;;;;;6.43;2.10;;;;;;;;;;5022069;28;20048;-69
2022/05/12 00:02:32;;;;;;;5.85;1.95;;;;;;;;;;5001581;28;20566;-70
2022/05/12 00:04:59;;;;;;;4.47;2.05;;;;;;;;;;5007709;28;20030;-70
2022/05/12 00:07:25;;;;;;;4.93;1.98;;;;;;;;;;5006363;28;20046;-70
2022/05/12 00:09:51;;;;;;;9.25;2.53;;;;;;;;;;5002925;28;20043;-70
2022/05/12 00:12:16;;;;;;;5.60;2.15;;;;;;;;;;5004206;28;20101;-69
2022/05/12 00:14:42;;;;;;;4.70;1.98;;;;;;;;;;5001020;28;20518;-70
2022/05/12 00:17:07;;;;;;;6.90;2.05;;;;;;;;;;5005797;28;20034;-70
2022/05/12 00:19:33;;;;;;;5.57;2.05;;;;;;;;;;5018639;28;20424;-70
2022/05/12 00:21:58;;;;;;;6.72;2.28;;;;;;;;;;5008074;28;20671;-70
2022/05/12 00:24:24;;;;;;;5.10;2.28;;;;;;;;;;5007286;28;20046;-70
2022/05/12 00:26:49;;;;;;;9.25;2.30;;;;;;;;;;5001053;28;20061;-70
2022/05/12 00:29:15;;;;;;;6.45;1.77;;;;;;;;;;5005194;28;20018;-70
2022/05/12 00:31:44;;;;;;;7.57;2.00;;;;;;;;;;5008297;28;20045;-69
2022/05/12 00:34:12;;;;;;;5.57;2.00;;;;;;;;;;5007905;28;20125;-70
2022/05/12 00:36:37;;;;;;;7.40;2.17;;;;;;;;;;5006733;28;20061;-70
2022/05/12 00:39:04;;;;;;;8.52;2.08;;;;;;;;;;5007968;28;20395;-69
2022/05/12 00:41:29;;;;;;;5.90;2.30;;;;;;;;;;5008423;28;20026;-70
2022/05/12 00:44:02;;;;;;;8.30;2.60;;;;;;;;;;5006682;28;20107;-69
2022/05/12 00:46:33;;;;;;;7.22;2.72;;;;;;;;;;4999667;28;20549;-70
2022/05/12 00:49:13;;;;;;;6.22;2.38;;;;;;;;;;5007314;28;20594;-70
2022/05/12 00:52:01;;;;;;;7.70;2.45;;;;;;;;;;5007443;28;20140;-70
2022/05/12 00:54:36;;;;;;;6.82;2.20;;;;;;;;;;4999886;28;20044;-70
2022/05/12 00:57:04;;;;;;;6.82;2.80;;;;;;;;;;5007623;28;20032;-70
2022/05/12 00:59:32;;;;;;;6.45;2.70;;;;;;;;;;5008097;28;20026;-70
2022/05/12 01:02:00;;;;;;;9.02;2.75;;;;;;;;;;5005636;28;20042;-70
2022/05/12 01:04:26;;;;;;;7.38;2.35;;;;;;;;;;5001755;28;20048;-69
2022/05/12 01:06:52;;;;;;;8.80;3.08;;;;;;;;;;5006039;28;20038;-70
2022/05/12 01:09:18;;;;;;;8.18;2.35;;;;;;;;;;5007229;28;20474;-70
2022/05/12 01:11:44;;;;;;;7.88;2.90;;;;;;;;;;5007495;28;20072;-69
2022/05/12 01:14:11;;;;;;;6.93;2.70;;;;;;;;;;5007367;28;20065;-69
2022/05/12 01:16:47;;;;;;;10.30;2.83;;;;;;;;;;5002604;28;20519;-70
2022/05/12 01:19:21;;;;;;;11.13;3.08;;;;;;;;;;5007883;28;20050;-70
2022/05/12 01:21:48;;;;;;;7.95;3.10;;;;;;;;;;5007896;28;20092;-70
2022/05/12 01:24:15;;;;;;;7.82;2.78;;;;;;;;;;5007591;28;20053;-70
2022/05/12 01:26:41;;;;;;;8.50;2.90;;;;;;;;;;5002935;28;20423;-70
2022/05/12 01:29:07;;;;;;;10.73;3.00;;;;;;;;;;5007370;28;20504;-70
2022/05/12 01:31:33;;;;;;;9.88;2.97;;;;;;;;;;5007331;28;20049;-70
2022/05/12 01:33:59;;;;;;;11.48;3.58;;;;;;;;;;5001516;28;20120;-70
2022/05/12 01:36:25;;;;;;;9.38;3.17;;;;;;;;;;5007041;28;20523;-69
2022/05/12 01:38:50;;;;;;;10.18;3.08;;;;;;;;;;5005500;28;20026;-70
2022/05/12 01:41:16;;;;;;;8.48;3.47;;;;;;;;;;5003020;28;20025;-70
2022/05/12 01:43:41;;;;;;;6.60;2.97;;;;;;;;;;5006061;28;20471;-70
2022/05/12 01:46:07;;;;;;;6.90;2.85;;;;;;;;;;5007333;28;20551;-69
2022/05/12 01:48:33;;;;;;;11.50;3.25;;;;;;;;;;5007015;28;20120;-70
2022/05/12 01:50:59;;;;;;;9.30;3.25;;;;;;;;;;5002909;28;20027;-70
2022/05/12 01:53:24;;;;;;;7.82;2.58;;;;;;;;;;5006665;28;20014;-70
2022/05/12 01:55:49;;;;;;;9.88;2.70;;;;;;;;;;5006782;28;20092;-70
2022/05/12 01:58:17;;;;;;;9.23;2.78;;;;;;;;;;5022406;28;20030;-70
2022/05/12 02:00:43;;;;;;;6.38;2.53;;;;;;;;;;5007022;28;20502;-70
2022/05/12 02:03:09;;;;;;;8.77;2.75;;;;;;;;;;5001405;28;20104;-70
2022/05/12 02:05:36;;;;;;;7.43;3.28;;;;;;;;;;5021836;28;20030;-70
2022/05/12 02:08:03;;;;;;;7.10;2.70;;;;;;;;;;5007025;28;20034;-70
2022/05/12 02:10:32;;;;;;;7.47;3.03;;;;;;;;;;5021317;28;20030;-70
2022/05/12 02:12:58;;;;;;;6.13;2.83;;;;;;;;;;5007122;28;20128;-70
2022/05/12 02:15:24;;;;;;;8.45;3.10;;;;;;;;;;5007069;28;20026;-70
2022/05/12 02:17:49;;;;;;;6.95;2.60;;;;;;;;;;5006346;28;20021;-70
2022/05/12 02:20:17;;;;;;;12.55;3.08;;;;;;;;;;5001523;28;20407;-69
2022/05/12 02:22:43;;;;;;;8.07;2.90;;;;;;;;;;5006941;28;20038;-70
2022/05/12 02:25:09;;;;;;;8.57;2.85;;;;;;;;;;5005917;28;20624;-70
2022/05/12 02:27:35;;;;;;;10.77;3.00;;;;;;;;;;5004531;28;20080;-70
2022/05/12 02:30:01;;;;;;;8.20;3.33;;;;;;;;;;5008041;28;20045;-70
2022/05/12 02:32:29;;;;;;;13.05;3.10;;;;;;;;;;5004346;28;20602;-70
2022/05/12 02:34:56;;;;;;;9.75;3.42;;;;;;;;;;5009795;28;20503;-70
2022/05/12 02:37:21;;;;;;;11.75;3.45;;;;;;;;;;5009612;28;20087;-70
2022/05/12 02:39:47;;;;;;;7.20;3.25;;;;;;;;;;5010047;28;20038;-69
2022/05/12 02:42:12;;;;;;;7.85;2.88;;;;;;;;;;5006357;28;20494;-69
2022/05/12 02:44:38;;;;;;;7.22;2.78;;;;;;;;;;5025479;28;20037;-70
2022/05/12 02:47:05;;;;;;;9.95;3.38;;;;;;;;;;5010136;28;20026;-70
2022/05/12 02:49:31;;;;;;;8.48;3.40;;;;;;;;;;5008209;28;20038;-70
2022/05/12 02:51:56;;;;;;;6.07;2.70;;;;;;;;;;5009497;28;20049;-70
2022/05/12 02:54:22;;;;;;;11.57;3.35;;;;;;;;;;5008516;28;20025;-70
2022/05/12 02:56:49;;;;;;;4.30;2.70;;;;;;;;;;5023767;28;20033;-70
2022/05/12 02:59:17;;;;;;;8.65;3.30;;;;;;;;;;5006689;28;20109;-70
2022/05/12 03:01:42;;;;;;;5.22;2.65;;;;;;;;;;5008493;28;20171;-70
2022/05/12 03:04:08;;;;;;;13.02;3.45;;;;;;;;;;5004664;28;20125;-70
2022/05/12 03:06:34;;;;;;;8.70;2.90;;;;;;;;;;5009505;28;20065;-70
2022/05/12 03:08:59;;;;;;;7.53;3.17;;;;;;;;;;5009445;28;20036;-70
2022/05/12 03:11:25;;;;;;;10.50;2.95;;;;;;;;;;5008840;28;20030;-70
2022/05/12 03:13:51;;;;;;;5.40;2.88;;;;;;;;;;5005130;28;20112;-70
2022/05/12 03:16:18;;;;;;;9.32;3.03;;;;;;;;;;5009503;28;20034;-70
2022/05/12 03:18:46;;;;;;;10.00;2.80;;;;;;;;;;5002769;28;20038;-70
2022/05/12 03:21:15;;;;;;;5.95;2.90;;;;;;;;;;5005823;28;20550;-69
2022/05/12 03:23:41;;;;;;;6.75;3.17;;;;;;;;;;5009596;28;20021;-70
2022/05/12 03:26:08;;;;;;;5.35;2.90;;;;;;;;;;5004099;28;20046;-70
2022/05/12 03:28:34;;;;;;;8.68;3.10;;;;;;;;;;5006997;28;20541;-70
2022/05/12 03:31:00;;;;;;;6.03;3.28;;;;;;;;;;5008814;28;20055;-70
2022/05/12 03:33:25;;;;;;;8.10;3.25;;;;;;;;;;5005639;28;20115;-70
2022/05/12 03:35:51;;;;;;;7.15;2.88;;;;;;;;;;5008902;28;20037;-70
2022/05/12 03:38:19;;;;;;;7.25;3.08;;;;;;;;;;5006038;28;20064;-70
2022/05/12 03:40:44;;;;;;;8.07;3.30;;;;;;;;;;5023067;28;20145;-70
2022/05/12 03:43:10;;;;;;;7.35;3.63;;;;;;;;;;5005620;28;20037;-70
2022/05/12 03:45:36;;;;;;;10.02;3.30;;;;;;;;;;5008398;28;20033;-69
2022/05/12 03:48:02;;;;;;;13.70;3.35;;;;;;;;;;5008190;28;20049;-70
2022/05/12 03:50:28;;;;;;;8.50;3.40;;;;;;;;;;5007894;28;20075;-69
2022/05/12 03:52:55;;;;;;;7.90;3.58;;;;;;;;;;5007597;28;20117;-70
2022/05/12 03:55:24;;;;;;;12.25;3.85;;;;;;;;;;5007262;28;20034;-70
2022/05/12 03:57:53;;;;;;;8.10;3.83;;;;;;;;;;5005749;28;20445;-70
2022/05/12 04:00:23;;;;;;;7.28;3.40;;;;;;;;;;5008390;28;20026;-70
2022/05/12 04:02:50;;;;;;;13.75;4.20;;;;;;;;;;5005901;28;20033;-70
2022/05/12 04:05:18;;;;;;;8.57;3.70;;;;;;;;;;5007904;28;20026;-69
2022/05/12 04:07:44;;;;;;;7.45;3.53;;;;;;;;;;5007005;28;20034;-70
2022/05/12 04:10:11;;;;;;;8.93;4.03;;;;;;;;;;5008195;28;20558;-69
2022/05/12 04:12:36;;;;;;;9.38;4.43;;;;;;;;;;5007220;28;20038;-70
2022/05/12 04:15:02;;;;;;;10.73;4.78;;;;;;;;;;5008189;28;20032;-70
2022/05/12 04:17:28;;;;;;;10.80;4.28;;;;;;;;;;5008743;28;20072;-69
2022/05/12 04:19:53;;;;;;;11.52;4.20;;;;;;;;;;5005316;28;20069;-70
2022/05/12 04:22:19;;;;;;;10.65;4.60;;;;;;;;;;5008338;28;20499;-70
2022/05/12 04:24:45;;;;;;;8.57;4.57;;;;;;;;;;5003942;28;20108;-69
2022/05/12 04:27:10;;;;;;;9.07;4.65;;;;;;;;;;5006791;28;20084;-70
2022/05/12 04:29:38;;;;;;;11.68;5.18;;;;;;;;;;5005108;28;20037;-70
2022/05/12 04:32:03;;;;;;;11.20;4.30;;;;;;;;;;5021301;28;20396;-70
2022/05/12 04:37:12;;;;;;;;;;;;;;;;;;5008470;28;20068;-70
2022/05/12 04:39:38;;;;;;;14.65;4.60;;;;;;;;;;5006187;28;19949;-70
2022/05/12 04:42:04;;;;;;;20.55;5.57;;;;;;;;;;5005932;28;20060;-70
2022/05/12 04:44:29;;;;;;;14.60;5.63;;;;;;;;;;5008156;28;20053;-70
2022/05/12 04:46:55;;;;;;;9.85;4.65;;;;;;;;;;5022440;28;20061;-70
2022/05/12 04:49:22;;;;;;;9.90;4.90;;;;;;;;;;5006950;28;20034;-70
2022/05/12 04:51:48;;;;;;;10.98;4.82;;;;;;;;;;5002625;28;20045;-70
2022/05/12 04:54:14;;;;;;;11.50;4.90;;;;;;;;;;5007394;28;20569;-69
2022/05/12 04:56:41;;;;;;;14.05;5.72;;;;;;;;;;5006172;28;20034;-70
2022/05/12 04:59:08;;;;;;;12.85;5.53;;;;;;;;;;5007455;28;20033;-70
2022/05/12 05:01:34;;;;;;;13.95;5.60;;;;;;;;;;5004211;28;20046;-70
2022/05/12 05:04:00;;;;;;;14.77;5.78;;;;;;;;;;5005689;28;20065;-70
2022/05/12 05:06:27;;;;;;;17.30;5.82;;;;;;;;;;5002726;28;20040;-70
2022/05/12 05:08:52;;;;;;;14.90;7.00;;;;;;;;;;5002818;28;20725;-70
2022/05/12 05:11:18;;;;;;;15.63;5.72;;;;;;;;;;4994949;28;20028;-70
2022/05/12 05:13:44;;;;;;;15.25;5.95;;;;;;;;;;5007629;28;20042;-70
2022/05/12 05:16:09;;;;;;;17.08;7.63;;;;;;;;;;5007820;28;20057;-70
2022/05/12 05:18:36;;;;;;;18.92;6.57;;;;;;;;;;5006887;28;20030;-70
2022/05/12 05:21:02;;;;;;;17.92;6.65;;;;;;;;;;5005992;28;20025;-70
2022/05/12 05:23:27;;;;;;;24.98;8.27;;;;;;;;;;5007901;28;20072;-70
2022/05/12 05:25:52;;;;;;;14.45;6.13;;;;;;;;;;5006318;28;20045;-70
2022/05/12 05:28:18;;;;;;;13.55;6.53;;;;;;;;;;5007145;28;20072;-70
2022/05/12 05:30:43;;;;;;;15.48;6.40;;;;;;;;;;5005734;28;20068;-70
2022/05/12 05:33:10;;;;;;;20.65;7.03;;;;;;;;;;5007315;28;20042;-70
2022/05/12 05:35:35;;;;;;;14.82;7.15;;;;;;;;;;5007901;28;20045;-70
2022/05/12 05:38:01;;;;;;;23.85;8.50;;;;;;;;;;5007525;28;20543;-71
2022/05/12 05:40:28;;;;;;;22.02;7.65;;;;;;;;;;5002333;28;20030;-70
2022/05/12 05:42:55;;;;;;;16.42;7.55;;;;;;;;;;5005084;28;20081;-71
2022/05/12 05:45:21;;;;;;;17.27;8.02;;;;;;;;;;5007074;28;20104;-70
2022/05/12 05:47:50;;;;;;;19.13;7.32;;;;;;;;;;5007620;28;20030;-69
2022/05/12 05:50:20;;;;;;;27.83;7.82;;;;;;;;;;5005956;28;20022;-70
2022/05/12 05:55:29;;;;;;;20.50;7.80;;;;;;;;;;5007239;28;20149;-70
2022/05/12 05:58:01;;;;;;;19.77;8.18;;;;;;;;;;5006528;28;20120;-70
2022/05/12 06:00:27;;;;;;;19.70;8.88;;;;;;;;;;5002747;28;20041;-69
2022/05/12 06:02:53;;;;;;;26.98;8.77;;;;;;;;;;5003422;28;20037;-70
2022/05/12 06:05:18;;;;;;;27.05;8.70;;;;;;;;;;5007779;28;20668;-70
2022/05/12 06:07:44;;;;;;;20.65;7.50;;;;;;;;;;5017074;28;20038;-70
2022/05/12 06:10:10;;;;;;;21.85;8.18;;;;;;;;;;5009529;28;20038;-70
2022/05/12 06:12:36;;;;;;;21.90;7.40;;;;;;;;;;5010005;28;20052;-70
2022/05/12 06:15:01;;;;;;;19.75;8.38;;;;;;;;;;5009163;28;20506;-70
2022/05/12 06:17:26;;;;;;;20.98;7.78;;;;;;;;;;5010965;28;20044;-70
2022/05/12 06:19:54;;;;;;;36.75;10.60;;;;;;;;;;4993300;28;20038;-71
2022/05/12 06:22:22;;;;;;;21.92;7.90;;;;;;;;;;5009749;28;20044;-70
2022/05/12 06:24:47;;;;;;;29.40;8.70;;;;;;;;;;5009167;28;20034;-70
2022/05/12 06:27:14;;;;;;;23.58;9.48;;;;;;;;;;5005724;28;20092;-70
2022/05/12 06:29:41;;;;;;;25.92;9.02;;;;;;;;;;5010800;28;20153;-70
2022/05/12 06:32:07;;;;;;;27.92;8.88;;;;;;;;;;5009526;28;20099;-70
2022/05/12 06:34:33;;;;;;;17.75;8.50;;;;;;;;;;5010229;28;20038;-69
2022/05/12 06:36:59;;;;;;;32.33;9.02;;;;;;;;;;5009234;28;20042;-70
2022/05/12 06:39:25;;;;;;;25.48;8.85;;;;;;;;;;5010749;28;20095;-70
2022/05/12 06:41:51;;;;;;;23.30;8.70;;;;;;;;;;5010742;28;20097;-69
2022/05/12 06:44:17;;;;;;;25.73;9.43;;;;;;;;;;5005518;28;20022;-70
2022/05/12 06:46:43;;;;;;;26.35;10.15;;;;;;;;;;5010057;28;20041;-70
2022/05/12 06:49:08;;;;;;;25.33;9.30;;;;;;;;;;5007720;28;20034;-70
2022/05/12 06:51:34;;;;;;;25.48;10.13;;;;;;;;;;4997982;28;20042;-69
2022/05/12 06:54:00;;;;;;;25.65;9.63;;;;;;;;;;4999172;28;20022;-70
2022/05/12 06:56:25;;;;;;;24.55;9.27;;;;;;;;;;5011847;28;20083;-70
2022/05/12 06:58:51;;;;;;;21.33;8.20;;;;;;;;;;4997726;28;20042;-69
2022/05/12 07:01:16;;;;;;;23.83;9.18;;;;;;;;;;5001097;28;20396;-70
2022/05/12 07:03:42;;;;;;;25.92;9.80;;;;;;;;;;5001428;28;20038;-70
2022/05/12 07:06:07;;;;;;;20.10;9.02;;;;;;;;;;4992246;28;20042;-70
2022/05/12 07:08:40;;;;;;;23.98;10.00;;;;;;;;;;4995500;28;20033;-68
2022/05/12 07:11:06;;;;;;;25.73;10.40;;;;;;;;;;4995422;28;20432;-68
2022/05/12 07:13:32;;;;;;;24.25;10.68;;;;;;;;;;4996909;28;20100;-69
2022/05/12 07:15:57;;;;;;;41.38;11.15;;;;;;;;;;4999296;28;20030;-70
2022/05/12 07:18:22;;;;;;;28.52;10.30;;;;;;;;;;4999798;28;20062;-70
2022/05/12 07:28:59;;;;;;;;;;;;;;;;;;5000432;28;20804;-70
2022/05/12 07:31:24;;;;;;;28.80;12.55;;;;;;;;;;4997471;28;19921;-67
2022/05/12 07:33:50;;;;;;;28.80;13.10;;;;;;;;;;5013482;28;20049;-71
2022/05/12 07:36:27;;;;;;;27.10;13.90;;;;;;;;;;5005129;28;20043;-70
2022/05/12 07:38:55;;;;;;;24.38;12.40;;;;;;;;;;5005734;28;20034;-71
2022/05/12 07:41:20;;;;;;;24.08;11.75;;;;;;;;;;5006202;28;20033;-71
2022/05/12 07:43:47;;;;;;;30.73;11.15;;;;;;;;;;5003202;28;20030;-70
2022/05/12 07:46:14;;;;;;;26.48;12.55;;;;;;;;;;5004162;28;20048;-70
2022/05/12 07:48:40;;;;;;;23.17;10.85;;;;;;;;;;5003379;28;20100;-70
2022/05/12 07:51:07;;;;;;;20.95;11.80;;;;;;;;;;5006551;28;20534;-70
2022/05/12 07:53:33;;;;;;;25.95;12.50;;;;;;;;;;5006252;28;20049;-69
2022/05/12 07:55:59;;;;;;;24.05;12.48;;;;;;;;;;5002788;28;20056;-69
2022/05/12 07:58:24;;;;;;;24.35;11.75;;;;;;;;;;4987476;28;20596;-69
2022/05/12 08:00:52;;;;;;;24.17;12.32;;;;;;;;;;5003094;28;20038;-70
2022/05/12 08:03:17;;;;;;;23.35;12.98;;;;;;;;;;4999107;28;20658;-70
2022/05/12 08:05:42;;;;;;;21.27;12.27;;;;;;;;;;5003276;28;20045;-70
2022/05/12 08:08:10;;;;;;;21.77;12.85;;;;;;;;;;5005333;28;20066;-70
2022/05/12 08:10:36;;;;;;;24.75;12.10;;;;;;;;;;5006328;28;20046;-70
2022/05/12 08:13:02;;;;;;;24.88;11.95;;;;;;;;;;5005750;28;20689;-70
2022/05/12 08:15:27;;;;;;;21.90;11.57;;;;;;;;;;5001972;28;20061;-70
2022/05/12 08:17:56;;;;;;;19.50;10.48;;;;;;;;;;4996464;28;20127;-70
2022/05/12 08:20:23;;;;;;;18.63;10.18;;;;;;;;;;5002504;28;20440;-70
2022/05/12 08:22:48;;;;;;;22.88;11.93;;;;;;;;;;5005157;28;20527;-70
2022/05/12 08:25:14;;;;;;;21.30;10.70;;;;;;;;;;5001931;28;20128;-71
2022/05/12 08:27:39;;;;;;;22.27;10.50;;;;;;;;;;4999760;28;20049;-70
2022/05/12 08:30:08;;;;;;;22.58;10.18;;;;;;;;;;5004829;28;20068;-69
2022/05/12 08:32:33;;;;;;;15.60;9.07;;;;;;;;;;5005036;28;20030;-71
2022/05/12 08:34:59;;;;;;;16.23;10.02;;;;;;;;;;5002472;28;20099;-71
2022/05/12 08:37:24;;;;;;;17.08;9.73;;;;;;;;;;4998431;28;20037;-70
2022/05/12 08:39:51;;;;;;;20.88;9.68;;;;;;;;;;5002296;28;20041;-71
2022/05/12 08:42:19;;;;;;;12.90;7.65;;;;;;;;;;5005073;28;20029;-71
2022/05/12 08:44:45;;;;;;;20.70;10.05;;;;;;;;;;5003522;28;20046;-70
2022/05/12 08:47:14;;;;;;;16.15;8.45;;;;;;;;;;5001357;28;20036;-70
2022/05/12 08:49:44;;;;;;;16.20;8.68;;;;;;;;;;5005172;28;20034;-71
2022/05/12 08:52:22;;;;;;;15.77;9.27;;;;;;;;;;5006060;28;20041;-70
2022/05/12 08:55:06;;;;;;;16.23;8.77;;;;;;;;;;5020818;28;20576;-70
2022/05/12 08:57:40;;;;;;;17.33;8.57;;;;;;;;;;5013322;28;20065;-69
2022/05/12 09:00:07;;;;;;;;;;;;;;;;;;4998935;28;20480;-68
2022/05/12 09:02:48;;;;;;;14.70;7.00;;;;;;;;;;5004172;28;19960;-68
2022/05/12 09:05:19;;;;;;;16.13;8.43;;;;;;;;;;5019549;28;20424;-69
2022/05/12 09:07:50;;;;;;;13.25;8.10;;;;;;;;;;4999451;28;20057;-68
2022/05/12 09:10:34;;;;;;;11.07;7.22;;;;;;;;;;5001820;28;20145;-69
2022/05/12 09:13:11;;;;;;;12.93;7.38;;;;;;;;;;5000757;28;20078;-68
2022/05/12 09:15:40;;;;;;;10.70;7.00;;;;;;;;;;4980390;28;30028;-67
2022/05/12 09:18:15;;;;;;;16.35;6.97;;;;;;;;;;4998394;28;20034;-68
2022/05/12 09:20:40;;;;;;;11.82;7.15;;;;;;;;;;5001658;28;20072;-69
2022/05/12 09:23:07;;;;;;;16.77;8.07;;;;;;;;;;5005557;28;20042;-71
2022/05/12 09:25:47;;;;;;;8.50;6.45;;;;;;;;;;5003472;28;20135;-70
2022/05/12 09:28:30;;;;;;;14.85;5.70;;;;;;;;;;5000428;28;20042;-70
2022/05/12 09:31:19;;;;;;;12.02;6.20;;;;;;;;;;5005509;28;20057;-71
2022/05/12 09:33:47;;;;;;;10.70;5.63;;;;;;;;;;5003621;28;20684;-71
2022/05/12 09:36:21;;;;;;;12.85;6.68;;;;;;;;;;5002175;28;20484;-71
2022/05/12 09:38:48;;;;;;;14.75;6.10;;;;;;;;;;5005186;28;20413;-72
2022/05/12 09:41:31;;;;;;;11.38;6.05;;;;;;;;;;5001260;28;20132;-74
2022/05/12 09:43:57;;;;;;;9.25;5.05;;;;;;;;;;5010222;28;20396;-73
2022/05/12 09:46:29;;;;;;;8.82;5.55;;;;;;;;;;5001120;28;20042;-74
2022/05/12 09:49:14;;;;;;;12.77;5.37;;;;;;;;;;5000211;28;20044;-70
2022/05/12 09:51:39;;;;;;;8.82;5.32;;;;;;;;;;5007256;28;20293;-72
2022/05/12 09:54:23;;;;;;;8.70;5.20;;;;;;;;;;4991062;28;20041;-73
2022/05/12 09:57:15;;;;;;;11.15;6.30;;;;;;;;;;4989586;28;20050;-73
2022/05/12 09:59:44;;;;;;;7.47;4.80;;;;;;;;;;5008380;28;20145;-70
2022/05/12 10:08:19;;;;;;;7.55;4.78;;;;;;;;;;5001657;28;20092;-71
2022/05/12 10:10:49;;;;;;;10.18;5.60;;;;;;;;;;5008025;28;20053;-72
2022/05/12 10:13:32;;;;;;;11.40;4.97;;;;;;;;;;5004749;28;20034;-72
2022/05/12 10:15:59;;;;;;;10.10;5.10;;;;;;;;;;5002202;28;20061;-72
2022/05/12 10:18:34;;;;;;;6.03;4.05;;;;;;;;;;5009089;28;20037;-71
2022/05/12 10:21:12;;;;;;;6.88;3.47;;;;;;;;;;5002139;28;20033;-72
2022/05/12 10:23:59;;;;;;;7.22;3.40;;;;;;;;;;4998791;28;20034;-72
2022/05/12 10:26:35;;;;;;;5.28;3.40;;;;;;;;;;5004818;28;20048;-71
2022/05/12 10:29:26;;;;;;;6.68;4.28;;;;;;;;;;5005615;28;20046;-72
2022/05/12 10:32:09;;;;;;;7.55;2.92;;;;;;;;;;5004310;28;20073;-72
2022/05/12 10:34:47;;;;;;;8.77;2.80;;;;;;;;;;5004823;28;20045;-71
2022/05/12 10:37:46;;;;;;;9.23;3.47;;;;;;;;;;5003929;28;20026;-72
2022/05/12 10:40:41;;;;;;;7.05;3.10;;;;;;;;;;4998534;28;20067;-71
2022/05/12 10:43:22;;;;;;;9.20;3.05;;;;;;;;;;5009206;28;20034;-72
2022/05/12 10:46:11;;;;;;;5.78;3.00;;;;;;;;;;5007872;28;20058;-72
2022/05/12 10:49:03;;;;;;;8.60;3.20;;;;;;;;;;5004082;28;20020;-71
2022/05/12 10:51:52;;;;;;;7.13;3.42;;;;;;;;;;4985443;28;20061;-72
2022/05/12 10:54:31;;;;;;;5.25;3.28;;;;;;;;;;4990151;28;20049;-72
2022/05/12 10:57:10;;;;;;;7.90;3.30;;;;;;;;;;4988921;28;20049;-72
2022/05/12 11:00:00;;;;;;;5.03;2.72;;;;;;;;;;4989671;28;20049;-72
2022/05/12 11:02:45;;;;;;;6.10;2.20;;;;;;;;;;4987312;28;20586;-70
2022/05/12 11:05:31;;;;;;;4.72;2.55;;;;;;;;;;4996784;28;20153;-71
2022/05/12 11:08:02;;;;;;;8.40;2.90;;;;;;;;;;4987512;28;20042;-71
2022/05/12 11:10:34;;;;;;;5.50;2.78;;;;;;;;;;4995228;28;20550;-70
2022/05/12 11:13:07;;;;;;;7.32;3.17;;;;;;;;;;4997828;28;20046;-72
2022/05/12 11:16:10;;;;;;;7.18;2.90;;;;;;;;;;4995749;28;20088;-72
2022/05/12 11:19:02;;;;;;;5.10;2.08;;;;;;;;;;4998606;28;20022;-70
2022/05/12 11:21:30;;;;;;;5.05;2.47;;;;;;;;;;4995311;28;20018;-69
2022/05/12 11:24:22;;;;;;;4.70;2.58;;;;;;;;;;4995966;28;20025;-72
2022/05/12 11:26:51;;;;;;;5.68;2.60;;;;;;;;;;4994711;28;20056;-72
2022/05/12 11:29:53;;;;;;;4.57;2.35;;;;;;;;;;4994956;28;20046;-71
2022/05/12 11:32:38;;;;;;;5.15;2.05;;;;;;;;;;5001112;28;20515;-71
2022/05/12 11:35:08;;;;;;;12.45;3.67;;;;;;;;;;5008240;28;20468;-71
2022/05/12 11:37:43;;;;;;;5.65;2.38;;;;;;;;;;5001215;28;20066;-72
2022/05/12 11:40:10;;;;;;;5.90;2.70;;;;;;;;;;4988021;28;20109;-71
2022/05/12 11:45:47;;;;;;;6.38;2.42;;;;;;;;;;5008591;28;20105;-71
2022/05/12 11:48:36;;;;;;;9.80;2.70;;;;;;;;;;4997720;28;20053;-72
2022/05/12 11:51:08;;;;;;;6.55;2.72;;;;;;;;;;5003717;28;20070;-72
2022/05/12 11:53:53;;;;;;;6.93;3.47;;;;;;;;;;5006925;28;20053;-72
2022/05/12 11:56:36;;;;;;;5.68;2.42;;;;;;;;;;5007361;28;20181;-71
2022/05/12 11:59:34;;;;;;;;;;;;;;;;;;5007984;28;20038;-70
2022/05/12 12:02:06;;;;;;;13.02;4.07;;;;;;;;;;5022011;28;20420;-70
2022/05/12 12:04:51;;;;;;;6.35;3.30;;;;;;;;;;4994972;28;20042;-70
2022/05/12 12:07:32;;;;;;;8.73;3.63;;;;;;;;;;5012344;28;20683;-70
2022/05/12 12:10:06;;;;;;;6.78;2.80;;;;;;;;;;5005102;28;20034;-69
2022/05/12 12:12:40;;;;;;;4.85;2.55;;;;;;;;;;5004145;28;20449;-71
2022/05/12 12:15:08;;;;;;;3.95;2.53;;;;;;;;;;5002277;28;20117;-71
2022/05/12 12:17:39;;;;;;;5.78;2.85;;;;;;;;;;4999064;28;20042;-71
2022/05/12 12:20:10;;;;;;;8.93;2.97;;;;;;;;;;4997913;28;20038;-71
2022/05/12 12:22:50;;;;;;;5.43;2.50;;;;;;;;;;5006184;28;20030;-71
2022/05/12 12:25:25;;;;;;;5.22;2.20;;;;;;;;;;5005994;28;20649;-71
2022/05/12 12:27:53;;;;;;;5.43;2.05;;;;;;;;;;5004871;28;20052;-71
2022/05/12 12:30:31;;;;;;;6.20;1.90;;;;;;;;;;5007457;28;20167;-71
2022/05/12 12:33:18;;;;;;;7.28;1.98;;;;;;;;;;4993061;28;20117;-71
2022/05/12 12:36:05;;;;;;;5.85;2.05;;;;;;;;;;5002750;28;20034;-71
2022/05/12 12:38:48;;;;;;;6.95;1.90;;;;;;;;;;5001287;28;20471;-71
2022/05/12 12:41:29;;;;;;;5.43;2.17;;;;;;;;;;4990320;28;20784;-70
2022/05/12 12:44:09;;;;;;;6.82;2.03;;;;;;;;;;4997639;28;20041;-70
2022/05/12 12:46:47;;;;;;;5.68;1.90;;;;;;;;;;4996382;28;20042;-71
2022/05/12 12:49:24;;;;;;;13.77;2.80;;;;;;;;;;4998262;28;20576;-71
2022/05/12 12:51:57;;;;;;;3.38;2.05;;;;;;;;;;4994517;28;20046;-73
2022/05/12 12:57:16;;;;;;;6.10;1.65;;;;;;;;;;5000312;28;20052;-75
2022/05/12 13:00:07;;;;;;;5.00;1.77;;;;;;;;;;5001690;28;20042;-73
2022/05/12 13:02:43;;;;;;;3.17;1.83;;;;;;;;;;5003558;28;20042;-70
2022/05/12 13:05:19;;;;;;;3.92;1.80;;;;;;;;;;5002486;28;20054;-74
2022/05/12 13:07:53;;;;;;;7.13;1.80;;;;;;;;;;5005173;28;20531;-74
2022/05/12 13:10:19;;;;;;;4.43;1.65;;;;;;;;;;4990088;28;20424;-75
2022/05/12 13:13:01;;;;;;;7.03;1.70;;;;;;;;;;4997757;28;20508;-70
2022/05/12 13:15:27;;;;;;;4.78;1.67;;;;;;;;;;5001913;28;20030;-71
2022/05/12 13:17:58;;;;;;;6.20;1.90;;;;;;;;;;4997772;28;20113;-73
2022/05/12 13:20:28;;;;;;;4.03;2.00;;;;;;;;;;5000250;28;20127;-73
2022/05/12 13:22:56;;;;;;;4.47;2.10;;;;;;;;;;5005286;28;20048;-73
2022/05/12 13:25:26;;;;;;;4.03;1.70;;;;;;;;;;4989403;28;20519;-74
2022/05/12 13:27:52;;;;;;;9.43;2.03;;;;;;;;;;4985996;28;20070;-71
2022/05/12 13:30:21;;;;;;;5.25;1.90;;;;;;;;;;4996261;28;20045;-69
2022/05/12 13:32:49;;;;;;;3.72;2.10;;;;;;;;;;4999261;28;20069;-72
2022/05/12 13:35:34;;;;;;;4.28;1.88;;;;;;;;;;5002826;28;20069;-68
2022/05/12 13:38:19;;;;;;;3.83;1.70;;;;;;;;;;4992858;28;20065;-68
2022/05/12 13:40:44;;;;;;;7.03;2.10;;;;;;;;;;5001674;28;20527;-68
2022/05/12 13:43:16;;;;;;;4.70;1.83;;;;;;;;;;5001474;28;20053;-70
2022/05/12 13:45:43;;;;;;;4.35;1.83;;;;;;;;;;4997125;28;20033;-70
2022/05/12 13:48:18;;;;;;;4.35;1.65;;;;;;;;;;4996657;28;20088;-70
2022/05/12 13:50:47;;;;;;;3.47;1.63;;;;;;;;;;4998929;28;20045;-70
2022/05/12 13:53:23;;;;;;;6.00;1.67;;;;;;;;;;5002558;28;20053;-69
2022/05/12 13:56:05;;;;;;;8.05;1.90;;;;;;;;;;5002277;28;20042;-71
2022/05/12 13:58:30;;;;;;;3.83;1.67;;;;;;;;;;4998352;28;20058;-69
2022/05/12 14:00:56;;;;;;;3.75;1.50;;;;;;;;;;4997975;28;20140;-69
2022/05/12 14:03:32;;;;;;;4.95;1.77;;;;;;;;;;4991621;28;20774;-68
2022/05/12 14:06:11;;;;;;;4.95;1.50;;;;;;;;;;4986461;28;20048;-69
2022/05/12 14:08:37;;;;;;;4.93;1.50;;;;;;;;;;4992855;28;20591;-69
2022/05/12 14:11:03;;;;;;;2.72;1.55;;;;;;;;;;5005724;28;20120;-68
2022/05/12 14:19:15;;;;;;;4.07;1.58;;;;;;;;;;5005446;28;20068;-68
2022/05/12 14:21:47;;;;;;;5.28;1.50;;;;;;;;;;5001050;28;20038;-69
2022/05/12 14:24:13;;;;;;;4.05;1.58;;;;;;;;;;5000568;28;20072;-69
2022/05/12 14:26:40;;;;;;;9.38;1.92;;;;;;;;;;4998472;28;20053;-69
2022/05/12 14:29:05;;;;;;;3.25;1.58;;;;;;;;;;5007027;28;20037;-69
2022/05/12 14:31:32;;;;;;;2.20;1.52;;;;;;;;;;5000907;28;20052;-68
2022/05/12 14:33:57;;;;;;;5.40;1.67;;;;;;;;;;5005866;28;20124;-68
2022/05/12 14:36:23;;;;;;;4.60;1.67;;;;;;;;;;5006092;28;20057;-69
2022/05/12 14:38:48;;;;;;;5.82;2.10;;;;;;;;;;5001292;28;20196;-68
2022/05/12 14:41:15;;;;;;;5.15;2.13;;;;;;;;;;5008109;28;20046;-69
2022/05/12 14:43:41;;;;;;;5.53;1.90;;;;;;;;;;5008008;28;20642;-69
2022/05/12 14:46:06;;;;;;;4.63;2.25;;;;;;;;;;5008048;28;20095;-69
2022/05/12 14:48:32;;;;;;;3.85;1.90;;;;;;;;;;5006203;28;20034;-69
2022/05/12 14:50:58;;;;;;;4.40;1.92;;;;;;;;;;5008357;28;20026;-69
2022/05/12 14:53:23;;;;;;;4.43;2.03;;;;;;;;;;5007162;28;20038;-68
2022/05/12 14:55:48;;;;;;;2.88;2.00;;;;;;;;;;5007082;28;20116;-69
2022/05/12 14:58:14;;;;;;;7.70;1.85;;;;;;;;;;5001026;28;20049;-69
2022/05/12 15:00:40;;;;;;;5.60;2.10;;;;;;;;;;5002375;28;20038;-69
2022/05/12 15:03:07;;;;;;;6.50;1.90;;;;;;;;;;5007479;28;20117;-69
2022/05/12 15:05:33;;;;;;;6.00;2.00;;;;;;;;;;5007454;28;20049;-69
2022/05/12 15:07:58;;;;;;;3.35;1.80;;;;;;;;;;5007008;28;20415;-69
2022/05/12 15:10:24;;;;;;;4.38;1.77;;;;;;;;;;4989561;28;20034;-69
2022/05/12 15:12:49;;;;;;;5.18;1.73;;;;;;;;;;5001223;28;20046;-68
2022/05/12 15:15:16;;;;;;;4.88;1.80;;;;;;;;;;4992219;28;20030;-69
2022/05/12 15:17:45;;;;;;;4.70;2.05;;;;;;;;;;5001743;28;20064;-69
2022/05/12 15:20:13;;;;;;;5.53;1.77;;;;;;;;;;5006142;28;20125;-68
2022/05/12 15:22:38;;;;;;;3.55;1.90;;;;;;;;;;4996605;28;20081;-69
2022/05/12 15:25:06;;;;;;;5.95;1.90;;;;;;;;;;5007904;28;20092;-69